createdAt,value
2023-02-21T00:00:26.753Z,42.13
2023-02-21T00:03:12.513Z,45.93
2023-02-21T00:05:58.056Z,42.83
2023-02-21T00:08:44.278Z,47.20
2023-02-21T00:11:31.239Z,43.57
2023-02-21T00:14:17.087Z,41.63
2023-02-21T00:17:02.546Z,42.77
2023-02-21T00:19:48.331Z,40.33
2023-02-21T00:22:34.024Z,42.20
2023-02-21T00:25:19.966Z,42.00
2023-02-21T00:28:06.018Z,41.63
2023-02-21T00:30:51.886Z,42.83
2023-02-21T00:33:37.625Z,40.47
2023-02-21T00:36:23.672Z,39.70
2023-02-21T00:39:09.496Z,42.23
2023-02-21T00:41:55.437Z,40.93
2023-02-21T00:44:41.050Z,43.23
2023-02-21T00:47:27.692Z,42.63
2023-02-21T00:50:14.872Z,43.43
2023-02-21T00:53:00.566Z,41.97
2023-02-21T00:55:46.008Z,40.67
2023-02-21T00:58:31.641Z,40.83
2023-02-21T01:01:17.429Z,40.37
2023-02-21T01:04:03.348Z,39.97
2023-02-21T01:06:48.892Z,40.27
2023-02-21T01:09:34.834Z,43.40
2023-02-21T01:12:20.469Z,38.90
2023-02-21T01:15:06.429Z,40.67
2023-02-21T01:17:51.922Z,43.93
2023-02-21T01:20:38.414Z,41.57
2023-02-21T01:23:24.192Z,45.27
2023-02-21T01:26:10.278Z,40.23
2023-02-21T01:28:56.097Z,44.37
2023-02-21T01:31:43.341Z,44.20
2023-02-21T01:34:29.362Z,42.03
2023-02-21T01:37:15.062Z,42.53
2023-02-21T01:40:00.660Z,39.63
2023-02-21T01:42:48.251Z,41.23
2023-02-21T01:45:39.703Z,39.27
2023-02-21T01:48:33.883Z,39.73
2023-02-21T01:51:21.343Z,42.03
2023-02-21T01:54:08.867Z,41.03
2023-02-21T01:56:56.148Z,39.23
2023-02-21T01:59:43.233Z,40.83
2023-02-21T02:02:53.444Z,43.23
2023-02-21T02:05:39.844Z,42.30
2023-02-21T02:08:26.538Z,45.77
2023-02-21T02:11:26.742Z,44.80
2023-02-21T02:14:20.455Z,44.77
2023-02-21T02:17:03.623Z,46.77
2023-02-21T02:19:33.835Z,45.17
2023-02-21T02:22:13.763Z,44.40
2023-02-21T02:25:02.930Z,46.03
2023-02-21T02:27:59.857Z,44.30
2023-02-21T02:30:45.193Z,43.70
2023-02-21T02:33:21.596Z,41.33
2023-02-21T02:36:15.086Z,42.40
2023-02-21T02:39:02.628Z,42.37
2023-02-21T02:41:48.798Z,41.17
2023-02-21T02:44:25.294Z,39.20
2023-02-21T02:46:54.680Z,41.47
2023-02-21T02:49:25.533Z,42.87
2023-02-21T02:51:53.318Z,43.07
2023-02-21T02:54:23.050Z,40.33
2023-02-21T02:56:50.425Z,38.97
2023-02-21T02:59:26.654Z,44.23
2023-02-21T03:02:12.473Z,42.80
2023-02-21T03:05:01.450Z,42.67
2023-02-21T03:07:54.506Z,42.80
2023-02-21T03:10:43.223Z,42.00
2023-02-21T03:13:25.249Z,40.07
2023-02-21T03:16:01.511Z,39.13
2023-02-21T03:18:50.384Z,44.17
2023-02-21T03:21:27.319Z,39.80
2023-02-21T03:24:00.124Z,37.90
2023-02-21T03:26:32.338Z,42.63
2023-02-21T03:29:11.438Z,45.07
2023-02-21T03:31:49.120Z,45.30
2023-02-21T03:34:16.427Z,42.47
2023-02-21T03:36:43.780Z,40.50
2023-02-21T03:39:12.037Z,40.27
2023-02-21T03:41:39.149Z,40.80
2023-02-21T03:44:06.722Z,45.07
2023-02-21T03:46:34.836Z,41.57
2023-02-21T03:49:01.959Z,49.57
2023-02-21T03:51:30.058Z,46.67
2023-02-21T03:53:58.391Z,46.33
2023-02-21T03:56:41.945Z,48.17
2023-02-21T03:59:22.032Z,44.53
2023-02-21T04:01:49.157Z,47.73
2023-02-21T04:04:17.500Z,46.17
2023-02-21T04:06:46.929Z,45.10
2023-02-21T04:09:14.096Z,42.13
2023-02-21T04:11:45.921Z,43.87
2023-02-21T04:14:14.217Z,43.13
2023-02-21T04:16:42.450Z,42.80
2023-02-21T04:19:10.369Z,41.57
2023-02-21T04:21:37.560Z,44.50
2023-02-21T04:24:05.715Z,43.47
2023-02-21T04:26:35.167Z,43.17
2023-02-21T04:29:05.542Z,41.40
2023-02-21T04:31:33.734Z,42.23
2023-02-21T04:34:11.674Z,41.30
2023-02-21T04:36:41.993Z,44.17
2023-02-21T04:39:09.369Z,44.07
2023-02-21T04:41:38.771Z,43.60
2023-02-21T04:44:07.472Z,46.60
2023-02-21T04:46:35.293Z,44.47
2023-02-21T04:49:02.649Z,47.50
2023-02-21T04:51:29.734Z,45.57
2023-02-21T04:53:56.855Z,45.07
2023-02-21T04:56:27.678Z,47.57
2023-02-21T04:58:56.638Z,45.17
2023-02-21T05:01:27.647Z,45.77
2023-02-21T05:03:57.177Z,46.83
2023-02-21T05:06:26.581Z,47.50
2023-02-21T05:08:53.572Z,45.70
2023-02-21T05:11:21.595Z,44.03
2023-02-21T05:13:49.118Z,46.60
2023-02-21T05:16:17.119Z,46.60
2023-02-21T05:18:46.689Z,50.33
2023-02-21T05:21:16.095Z,47.23
2023-02-21T05:23:56.238Z,45.47
2023-02-21T05:26:27.232Z,48.73
2023-02-21T05:28:55.103Z,47.10
2023-02-21T05:31:23.553Z,47.70
2023-02-21T05:33:51.282Z,48.80
2023-02-21T05:36:18.454Z,47.83
2023-02-21T05:38:54.073Z,46.17
2023-02-21T05:41:21.760Z,47.30
2023-02-21T05:43:49.813Z,43.80
2023-02-21T05:46:23.962Z,46.60
2023-02-21T05:48:51.621Z,46.03
2023-02-21T05:51:19.736Z,47.60
2023-02-21T05:53:48.627Z,44.10
2023-02-21T05:56:16.518Z,46.80
2023-02-21T05:58:45.365Z,44.67
2023-02-21T06:01:12.959Z,48.47
2023-02-21T06:03:40.640Z,44.83
2023-02-21T06:06:13.161Z,46.77
2023-02-21T06:08:47.712Z,46.80
2023-02-21T06:11:16.209Z,49.17
2023-02-21T06:13:44.792Z,48.67
2023-02-21T06:16:13.545Z,49.37
2023-02-21T06:18:40.712Z,50.00
2023-02-21T06:21:07.998Z,49.73
2023-02-21T06:23:35.404Z,49.00
2023-02-21T06:26:02.520Z,48.07
2023-02-21T06:28:30.977Z,46.90
2023-02-21T06:30:58.372Z,45.53
2023-02-21T06:33:26.087Z,47.13
2023-02-21T06:35:56.048Z,47.60
2023-02-21T06:38:24.156Z,47.47
2023-02-21T06:40:51.682Z,47.07
2023-02-21T06:43:18.721Z,47.37
2023-02-21T06:45:45.945Z,46.17
2023-02-21T06:48:17.806Z,46.13
2023-02-21T06:50:44.882Z,48.10
2023-02-21T06:53:12.022Z,47.13
2023-02-21T06:55:39.056Z,46.63
2023-02-21T06:58:07.126Z,46.57
2023-02-21T07:00:34.448Z,46.47
2023-02-21T07:03:02.059Z,46.47
2023-02-21T07:05:29.609Z,47.23
2023-02-21T07:07:56.928Z,46.73
2023-02-21T07:10:24.517Z,50.60
2023-02-21T07:12:51.731Z,52.10
2023-02-21T07:15:20.494Z,53.47
2023-02-21T07:17:47.756Z,50.30
2023-02-21T07:20:14.998Z,49.67
2023-02-21T07:22:42.194Z,50.17
2023-02-21T07:25:13.740Z,54.43
2023-02-21T07:27:41.006Z,52.87
2023-02-21T07:30:08.769Z,55.23
2023-02-21T07:32:36.009Z,53.47
2023-02-21T07:35:03.871Z,54.43
2023-02-21T07:37:31.123Z,52.77
2023-02-21T07:39:58.258Z,52.83
2023-02-21T07:42:25.968Z,52.10
2023-02-21T07:44:59.373Z,53.93
2023-02-21T07:47:27.620Z,52.70
2023-02-21T07:49:54.910Z,54.07
2023-02-21T07:52:23.569Z,54.43
2023-02-21T07:54:50.755Z,52.93
2023-02-21T07:57:19.087Z,54.13
2023-02-21T07:59:47.217Z,54.33
2023-02-21T08:02:15.377Z,52.00
2023-02-21T08:04:44.833Z,53.30
2023-02-21T08:07:12.183Z,53.23
2023-02-21T08:09:41.617Z,52.30
2023-02-21T08:12:09.136Z,52.90
2023-02-21T08:14:36.788Z,51.50
2023-02-21T08:17:04.552Z,55.03
2023-02-21T08:19:31.747Z,53.07
2023-02-21T08:21:59.309Z,54.67
2023-02-21T08:24:26.919Z,55.27
2023-02-21T08:26:54.186Z,54.30
2023-02-21T08:29:21.986Z,55.23
2023-02-21T08:31:50.517Z,53.27
2023-02-21T08:34:17.911Z,54.37
2023-02-21T08:36:50.673Z,54.03
2023-02-21T08:39:18.038Z,53.77
2023-02-21T08:41:48.522Z,53.80
2023-02-21T08:44:17.231Z,58.80
2023-02-21T08:46:49.726Z,55.50
2023-02-21T08:49:17.495Z,57.27
2023-02-21T08:51:45.093Z,57.93
2023-02-21T08:54:12.198Z,57.77
2023-02-21T08:56:39.714Z,57.30
2023-02-21T08:59:09.609Z,56.97
2023-02-21T09:01:36.996Z,58.97
2023-02-21T09:04:07.509Z,60.70
2023-02-21T09:06:34.864Z,57.87
2023-02-21T09:09:02.256Z,56.10
2023-02-21T09:11:32.958Z,59.60
2023-02-21T09:14:00.448Z,57.17
2023-02-21T09:16:31.338Z,58.60
2023-02-21T09:19:01.467Z,57.57
2023-02-21T09:21:31.553Z,57.37
2023-02-21T09:23:59.849Z,56.03
2023-02-21T09:26:27.187Z,55.47
2023-02-21T09:28:54.765Z,55.97
2023-02-21T09:31:22.306Z,55.97
2023-02-21T09:33:50.856Z,56.27
2023-02-21T09:36:23.907Z,56.07
2023-02-21T09:38:52.108Z,53.33
2023-02-21T09:41:20.754Z,54.93
2023-02-21T09:43:51.486Z,55.67
2023-02-21T09:46:41.409Z,54.63
2023-02-21T09:49:30.094Z,54.83
2023-02-21T09:52:00.052Z,56.07
2023-02-21T09:54:43.377Z,56.23
2023-02-21T09:57:18.835Z,56.20
2023-02-21T09:59:48.942Z,55.33
2023-02-21T10:02:35.315Z,56.80
2023-02-21T10:05:31.821Z,55.83
2023-02-21T10:08:20.690Z,57.30
2023-02-21T10:10:57.105Z,54.13
2023-02-21T10:13:33.191Z,57.07
2023-02-21T10:16:08.939Z,56.67
2023-02-21T10:18:42.073Z,55.63
2023-02-21T10:21:18.437Z,53.37
2023-02-21T10:23:48.540Z,58.33
2023-02-21T10:26:26.655Z,57.37
2023-02-21T10:28:57.008Z,57.80
2023-02-21T10:31:38.247Z,55.83
2023-02-21T10:34:08.008Z,57.10
2023-02-21T10:36:35.521Z,57.80
2023-02-21T10:39:19.707Z,56.87
2023-02-21T10:41:48.858Z,55.33
2023-02-21T10:44:25.630Z,58.00
2023-02-21T10:47:02.055Z,56.97
2023-02-21T10:49:34.909Z,54.97
2023-02-21T10:52:06.784Z,54.83
2023-02-21T10:54:35.615Z,54.83
2023-02-21T10:57:09.181Z,56.63
2023-02-21T10:59:43.073Z,57.60
2023-02-21T11:02:31.043Z,60.60
2023-02-21T11:05:19.386Z,57.27
2023-02-21T11:08:06.350Z,57.63
2023-02-21T11:10:36.334Z,57.50
2023-02-21T11:13:05.549Z,58.43
2023-02-21T11:15:32.773Z,59.37
2023-02-21T11:18:21.985Z,57.53
2023-02-21T11:20:49.655Z,60.10
2023-02-21T11:23:30.659Z,61.00
2023-02-21T11:26:12.995Z,60.37
2023-02-21T11:28:44.397Z,66.83
2023-02-21T11:31:28.688Z,64.30
2023-02-21T11:33:59.791Z,61.77
2023-02-21T11:36:30.696Z,57.80
2023-02-21T11:39:00.924Z,56.30
2023-02-21T11:41:31.196Z,58.03
2023-02-21T11:43:59.058Z,57.80
2023-02-21T11:46:49.153Z,56.33
2023-02-21T11:50:02.770Z,56.80
2023-02-21T11:53:02.283Z,55.60
2023-02-21T11:55:32.414Z,56.13
2023-02-21T11:58:19.324Z,53.93
2023-02-21T12:01:03.006Z,54.73
2023-02-21T12:03:51.974Z,58.43
2023-02-21T12:06:37.084Z,57.63
2023-02-21T12:09:26.033Z,57.07
2023-02-21T12:12:02.878Z,54.33
2023-02-21T12:14:58.445Z,55.27
2023-02-21T12:17:48.114Z,53.50
2023-02-21T12:20:34.305Z,55.17
2023-02-21T12:23:41.543Z,56.33
2023-02-21T12:26:40.046Z,55.43
2023-02-21T12:29:31.799Z,54.73
2023-02-21T12:32:23.424Z,55.23
2023-02-21T12:35:06.042Z,56.67
2023-02-21T12:37:50.590Z,54.70
2023-02-21T12:40:44.375Z,55.73
2023-02-21T12:43:20.637Z,55.90
2023-02-21T12:45:53.955Z,56.30
2023-02-21T12:48:39.931Z,55.20
2023-02-21T12:51:12.089Z,55.10
2023-02-21T12:54:01.689Z,54.20
2023-02-21T12:56:50.081Z,54.43
2023-02-21T12:59:40.173Z,55.90
2023-02-21T13:02:27.261Z,52.77
2023-02-21T13:04:59.500Z,53.60
2023-02-21T13:07:37.270Z,55.17
2023-02-21T13:10:17.120Z,54.67
2023-02-21T13:12:48.015Z,53.50
2023-02-21T13:15:22.919Z,51.50
2023-02-21T13:17:57.880Z,52.27
2023-02-21T13:20:28.089Z,52.63
2023-02-21T13:23:33.979Z,50.30
2023-02-21T13:26:23.315Z,51.80
2023-02-21T13:28:55.697Z,51.27
2023-02-21T13:31:29.752Z,53.07
2023-02-21T13:34:03.545Z,50.37
2023-02-21T13:36:43.226Z,51.33
2023-02-21T13:39:18.904Z,48.03
2023-02-21T13:41:51.453Z,48.00
2023-02-21T13:44:30.991Z,48.17
2023-02-21T13:47:12.215Z,49.77
2023-02-21T13:49:55.773Z,47.23
2023-02-21T13:52:29.424Z,47.27
2023-02-21T13:55:18.823Z,49.77
2023-02-21T13:57:59.275Z,48.60
2023-02-21T14:00:28.035Z,46.97
2023-02-21T14:03:21.511Z,48.70
2023-02-21T14:05:52.063Z,47.53
2023-02-21T14:08:33.071Z,46.20
2023-02-21T14:11:00.295Z,44.93
2023-02-21T14:13:46.451Z,43.13
2023-02-21T14:16:15.198Z,44.77
2023-02-21T14:18:56.936Z,41.03
2023-02-21T14:21:50.711Z,44.57
2023-02-21T14:24:25.540Z,43.23
2023-02-21T14:26:52.509Z,45.87
2023-02-21T14:29:35.266Z,41.73
2023-02-21T14:32:03.176Z,42.33
2023-02-21T14:34:48.554Z,41.90
2023-02-21T14:37:34.705Z,40.67
2023-02-21T14:40:16.754Z,39.67
2023-02-21T14:43:05.855Z,37.07
2023-02-21T14:45:57.989Z,35.73
2023-02-21T14:48:59.829Z,38.97
2023-02-21T14:52:14.004Z,39.53
2023-02-21T14:55:18.607Z,39.80
2023-02-21T14:58:27.786Z,37.23
2023-02-21T15:01:14.311Z,37.83
2023-02-21T15:03:54.473Z,35.37
2023-02-21T15:06:25.761Z,36.90
2023-02-21T15:08:53.661Z,35.30
2023-02-21T15:11:36.517Z,36.27
2023-02-21T15:14:29.523Z,37.53
2023-02-21T15:17:01.397Z,36.33
2023-02-21T15:19:34.701Z,35.43
2023-02-21T15:22:27.114Z,35.53
2023-02-21T15:25:09.723Z,36.50
2023-02-21T15:27:50.697Z,34.77
2023-02-21T15:30:30.711Z,33.63
2023-02-21T15:33:17.250Z,33.60
2023-02-21T15:36:03.172Z,32.00
2023-02-21T15:38:32.420Z,32.07
2023-02-21T15:41:08.283Z,31.87
2023-02-21T15:43:40.508Z,32.07
2023-02-21T15:46:13.066Z,31.00
2023-02-21T15:48:42.725Z,32.17
2023-02-21T15:51:14.533Z,32.17
2023-02-21T15:53:42.287Z,29.60
2023-02-21T15:56:25.621Z,26.87
2023-02-21T15:59:13.301Z,25.57
2023-02-21T16:01:41.516Z,26.63
2023-02-21T16:04:20.799Z,25.73
2023-02-21T16:06:54.758Z,21.40
2023-02-21T16:09:29.705Z,23.53
2023-02-21T16:11:57.047Z,24.77
2023-02-21T16:14:54.909Z,24.70
2023-02-21T16:17:34.318Z,27.50
2023-02-21T16:20:19.512Z,25.73
2023-02-21T16:23:08.076Z,25.47
2023-02-21T16:25:35.975Z,26.93
2023-02-21T16:28:11.596Z,27.20
2023-02-21T16:30:39.561Z,26.23
2023-02-21T16:33:06.885Z,25.77
2023-02-21T16:35:34.730Z,26.10
2023-02-21T16:38:02.815Z,25.50
2023-02-21T16:40:33.508Z,26.10
2023-02-21T16:43:03.182Z,27.43
2023-02-21T16:45:31.385Z,27.97
2023-02-21T16:48:02.511Z,27.67
2023-02-21T16:50:33.278Z,30.73
2023-02-21T16:53:02.254Z,35.00
2023-02-21T16:55:30.222Z,33.63
2023-02-21T16:58:07.238Z,35.03
2023-02-21T17:00:35.030Z,35.40
2023-02-21T17:03:02.411Z,34.27
2023-02-21T17:05:29.889Z,34.30
2023-02-21T17:07:58.835Z,35.90
2023-02-21T17:10:26.557Z,36.30
2023-02-21T17:12:53.742Z,33.80
2023-02-21T17:15:21.771Z,33.53
2023-02-21T17:17:53.433Z,35.27
2023-02-21T17:20:23.038Z,32.77
2023-02-21T17:22:51.132Z,34.63
2023-02-21T17:25:19.094Z,35.93
2023-02-21T17:27:46.559Z,34.07
2023-02-21T17:30:16.180Z,34.73
2023-02-21T17:32:44.605Z,33.43
2023-02-21T17:35:15.024Z,33.67
2023-02-21T17:37:43.498Z,35.20
2023-02-21T17:40:11.580Z,34.17
2023-02-21T17:42:42.285Z,37.90
2023-02-21T17:45:10.380Z,36.47
2023-02-21T17:47:37.544Z,39.20
2023-02-21T17:50:05.740Z,38.07
2023-02-21T17:52:33.060Z,37.60
2023-02-21T17:55:02.843Z,34.40
2023-02-21T17:57:35.126Z,37.47
2023-02-21T18:00:02.152Z,36.97
2023-02-21T18:02:31.813Z,36.80
2023-02-21T18:04:59.420Z,37.03
2023-02-21T18:07:28.454Z,39.57
2023-02-21T18:09:55.550Z,37.80
2023-02-21T18:12:22.501Z,41.70
2023-02-21T18:14:49.706Z,38.90
2023-02-21T18:17:18.476Z,33.47
2023-02-21T18:19:45.959Z,35.57
2023-02-21T18:22:13.613Z,40.37
2023-02-21T18:24:41.188Z,40.70
2023-02-21T18:27:09.197Z,42.97
2023-02-21T18:29:36.438Z,41.57
2023-02-21T18:32:04.038Z,42.33
2023-02-21T18:34:31.189Z,43.97
2023-02-21T18:36:58.297Z,45.57
2023-02-21T18:39:25.548Z,47.87
2023-02-21T18:41:53.611Z,48.97
2023-02-21T18:44:20.671Z,49.83
2023-02-21T18:46:56.142Z,47.17
2023-02-21T18:49:23.994Z,46.57
2023-02-21T18:51:51.286Z,46.37
2023-02-21T18:54:19.743Z,47.37
2023-02-21T18:56:49.168Z,45.90
2023-02-21T18:59:22.025Z,45.43
2023-02-21T19:01:55.595Z,48.23
2023-02-21T19:04:23.029Z,48.60
2023-02-21T19:06:49.969Z,45.17
2023-02-21T19:09:17.428Z,47.03
2023-02-21T19:11:44.646Z,46.47
2023-02-21T19:14:12.023Z,47.97
2023-02-21T19:16:39.719Z,50.93
2023-02-21T19:19:07.030Z,51.73
2023-02-21T19:21:34.147Z,48.87
2023-02-21T19:24:03.048Z,52.57
2023-02-21T19:26:31.265Z,51.03
2023-02-21T19:28:58.385Z,52.10
2023-02-21T19:31:25.519Z,51.60
2023-02-21T19:33:52.836Z,52.03
2023-02-21T19:36:22.326Z,50.30
2023-02-21T19:38:49.494Z,50.50
2023-02-21T19:41:20.160Z,48.83
2023-02-21T19:43:47.645Z,48.27
2023-02-21T19:46:23.432Z,48.77
2023-02-21T19:48:53.523Z,48.77
2023-02-21T19:51:23.702Z,49.43
2023-02-21T19:53:51.117Z,46.70
2023-02-21T19:56:18.217Z,49.33
2023-02-21T19:58:47.953Z,49.60
2023-02-21T20:01:15.652Z,48.83
2023-02-21T20:03:44.478Z,48.47
2023-02-21T20:06:12.586Z,49.83
2023-02-21T20:08:40.192Z,48.50
2023-02-21T20:11:07.540Z,46.97
2023-02-21T20:13:38.345Z,47.13
2023-02-21T20:16:06.449Z,49.27
2023-02-21T20:18:33.617Z,51.00
2023-02-21T20:21:01.158Z,50.20
2023-02-21T20:23:28.352Z,49.40
2023-02-21T20:25:55.513Z,46.67
2023-02-21T20:28:22.821Z,49.20
2023-02-21T20:30:50.299Z,51.27
2023-02-21T20:33:21.800Z,49.83
2023-02-21T20:35:49.017Z,50.80
2023-02-21T20:38:16.044Z,50.93
2023-02-21T20:40:43.379Z,52.60
2023-02-21T20:43:11.002Z,51.57
2023-02-21T20:45:38.610Z,51.73
2023-02-21T20:48:11.095Z,53.30
2023-02-21T20:50:40.014Z,53.00
2023-02-21T20:53:07.509Z,53.53
2023-02-21T20:55:39.608Z,54.17
2023-02-21T20:58:07.757Z,52.30
2023-02-21T21:00:37.699Z,56.33
2023-02-21T21:03:05.751Z,55.37
2023-02-21T21:05:32.795Z,56.40
2023-02-21T21:08:02.262Z,62.80
2023-02-21T21:10:29.454Z,60.03
2023-02-21T21:12:57.783Z,53.13
2023-02-21T21:15:26.111Z,55.30
2023-02-21T21:17:53.446Z,55.20
2023-02-21T21:20:22.552Z,53.47
2023-02-21T21:22:50.529Z,55.43
2023-02-21T21:25:17.642Z,53.13
2023-02-21T21:27:46.147Z,50.57
2023-02-21T21:30:18.570Z,51.40
2023-02-21T21:32:45.732Z,51.67
2023-02-21T21:35:16.944Z,50.67
2023-02-21T21:37:47.120Z,52.43
2023-02-21T21:40:18.307Z,57.47
2023-02-21T21:42:56.884Z,57.10
2023-02-21T21:45:28.680Z,58.23
2023-02-21T21:48:00.465Z,60.33
2023-02-21T21:50:28.266Z,59.13
2023-02-21T21:53:00.363Z,63.33
2023-02-21T21:55:29.864Z,64.10
2023-02-21T21:57:59.302Z,63.83
2023-02-21T22:00:29.874Z,63.90
2023-02-21T22:02:59.008Z,63.63
2023-02-21T22:05:28.375Z,63.57
2023-02-21T22:07:56.768Z,60.13
2023-02-21T22:10:26.529Z,58.70
2023-02-21T22:12:56.799Z,58.63
2023-02-21T22:15:29.926Z,65.27
2023-02-21T22:18:01.991Z,68.27
2023-02-21T22:20:31.312Z,67.80
2023-02-21T22:22:59.210Z,61.53
2023-02-21T22:25:28.468Z,68.77
2023-02-21T22:27:58.655Z,68.60
2023-02-21T22:30:26.266Z,67.43
2023-02-21T22:32:53.226Z,75.77
2023-02-21T22:35:20.932Z,76.03
2023-02-21T22:37:57.586Z,80.23
2023-02-21T22:40:27.340Z,79.47
2023-02-21T22:42:56.347Z,82.90
2023-02-21T22:45:24.761Z,80.93
2023-02-21T22:47:55.800Z,81.00
2023-02-21T22:50:24.627Z,82.43
2023-02-21T22:52:54.878Z,78.17
2023-02-21T22:55:25.149Z,76.37
2023-02-21T22:57:55.291Z,80.10
2023-02-21T23:00:27.238Z,76.23
2023-02-21T23:02:54.378Z,78.83
2023-02-21T23:05:22.121Z,77.97
2023-02-21T23:07:58.952Z,75.93
2023-02-21T23:10:29.096Z,74.77
2023-02-21T23:12:58.597Z,75.20
2023-02-21T23:15:26.787Z,72.93
2023-02-21T23:17:54.512Z,76.10
2023-02-21T23:20:26.799Z,75.70
2023-02-21T23:22:55.449Z,72.97
2023-02-21T23:25:28.365Z,71.43
2023-02-21T23:27:57.605Z,73.13
2023-02-21T23:30:27.202Z,74.27
2023-02-21T23:32:55.854Z,75.17
2023-02-21T23:35:23.332Z,75.17
2023-02-21T23:37:53.571Z,75.07
2023-02-21T23:40:23.979Z,78.40
2023-02-21T23:42:54.678Z,78.40
2023-02-21T23:45:26.594Z,75.87
2023-02-21T23:47:56.378Z,79.27
2023-02-21T23:50:30.988Z,79.20
2023-02-21T23:52:59.605Z,82.57
2023-02-21T23:55:29.997Z,80.37
2023-02-21T23:58:03.912Z,78.80
